sensor_id;sensor_type;location;lat;lon;timestamp;P1;durP1;ratioP1;P2;durP2;ratioP2
3815;SDS011;1923;48.154;11.536;2023-11-22T00:02:23;14.00;;;8.40;;
3815;SDS011;1923;48.154;11.536;2023-11-22T00:04:55;13.77;;;7.67;;
3815;SDS011;1923;48.154;11.536;2023-11-22T00:07:24;13.27;;;7.77;;
3815;SDS011;1923;48.154;11.536;2023-11-22T00:09:55;17.00;;;7.67;;
3815;SDS011;1923;48.154;11.536;2023-11-22T00:12:24;14.70;;;8.67;;
3815;SDS011;1923;48.154;11.536;2023-11-22T00:14:52;16.77;;;7.90;;
3815;SDS011;1923;48.154;11.536;2023-11-22T00:17:22;13.03;;;7.00;;
3815;SDS011;1923;48.154;11.536;2023-11-22T00:19:51;15.83;;;8.20;;
3815;SDS011;1923;48.154;11.536;2023-11-22T00:22:19;13.47;;;7.80;;
3815;SDS011;1923;48.154;11.536;2023-11-22T00:24:47;16.87;;;8.40;;
3815;SDS011;1923;48.154;11.536;2023-11-22T00:27:16;13.67;;;8.07;;
3815;SDS011;1923;48.154;11.536;2023-11-22T00:29:44;16.13;;;7.80;;
3815;SDS011;1923;48.154;11.536;2023-11-22T00:32:13;16.80;;;8.60;;
3815;SDS011;1923;48.154;11.536;2023-11-22T00:34:42;12.70;;;7.93;;
3815;SDS011;1923;48.154;11.536;2023-11-22T00:37:11;17.90;;;7.67;;
3815;SDS011;1923;48.154;11.536;2023-11-22T00:39:39;15.90;;;7.90;;
3815;SDS011;1923;48.154;11.536;2023-11-22T00:42:07;16.60;;;8.50;;
3815;SDS011;1923;48.154;11.536;2023-11-22T00:44:36;13.73;;;6.93;;
3815;SDS011;1923;48.154;11.536;2023-11-22T00:47:04;14.20;;;7.87;;
3815;SDS011;1923;48.154;11.536;2023-11-22T00:49:32;14.20;;;7.07;;
3815;SDS011;1923;48.154;11.536;2023-11-22T00:52:02;15.53;;;7.10;;
3815;SDS011;1923;48.154;11.536;2023-11-22T00:54:31;13.50;;;6.90;;
3815;SDS011;1923;48.154;11.536;2023-11-22T00:56:59;11.07;;;6.80;;
3815;SDS011;1923;48.154;11.536;2023-11-22T00:59:27;12.20;;;7.40;;
3815;SDS011;1923;48.154;11.536;2023-11-22T01:01:55;13.83;;;7.07;;
3815;SDS011;1923;48.154;11.536;2023-11-22T01:04:23;16.30;;;7.60;;
3815;SDS011;1923;48.154;11.536;2023-11-22T01:06:52;17.63;;;6.97;;
3815;SDS011;1923;48.154;11.536;2023-11-22T01:09:21;14.00;;;8.33;;
3815;SDS011;1923;48.154;11.536;2023-11-22T01:11:49;17.53;;;7.77;;
3815;SDS011;1923;48.154;11.536;2023-11-22T01:14:17;13.67;;;7.57;;
3815;SDS011;1923;48.154;11.536;2023-11-22T01:16:45;13.87;;;7.73;;
3815;SDS011;1923;48.154;11.536;2023-11-22T01:19:13;13.30;;;7.90;;
3815;SDS011;1923;48.154;11.536;2023-11-22T01:21:42;13.27;;;7.90;;
3815;SDS011;1923;48.154;11.536;2023-11-22T01:24:10;12.33;;;6.20;;
3815;SDS011;1923;48.154;11.536;2023-11-22T01:26:39;13.03;;;7.20;;
3815;SDS011;1923;48.154;11.536;2023-11-22T01:29:08;18.90;;;8.17;;
3815;SDS011;1923;48.154;11.536;2023-11-22T01:31:38;13.47;;;7.43;;
3815;SDS011;1923;48.154;11.536;2023-11-22T01:34:08;12.80;;;8.00;;
3815;SDS011;1923;48.154;11.536;2023-11-22T01:36:38;11.17;;;6.70;;
3815;SDS011;1923;48.154;11.536;2023-11-22T01:39:10;15.03;;;7.80;;
3815;SDS011;1923;48.154;11.536;2023-11-22T01:41:41;13.93;;;7.77;;
3815;SDS011;1923;48.154;11.536;2023-11-22T01:44:11;15.70;;;7.00;;
3815;SDS011;1923;48.154;11.536;2023-11-22T01:46:39;13.23;;;6.40;;
3815;SDS011;1923;48.154;11.536;2023-11-22T01:49:08;13.93;;;7.40;;
3815;SDS011;1923;48.154;11.536;2023-11-22T01:51:37;13.13;;;7.57;;
3815;SDS011;1923;48.154;11.536;2023-11-22T01:54:07;11.00;;;7.33;;
3815;SDS011;1923;48.154;11.536;2023-11-22T01:56:37;12.33;;;8.00;;
3815;SDS011;1923;48.154;11.536;2023-11-22T01:59:07;12.27;;;7.70;;
3815;SDS011;1923;48.154;11.536;2023-11-22T02:01:35;12.67;;;6.23;;
3815;SDS011;1923;48.154;11.536;2023-11-22T02:04:03;13.00;;;6.97;;
3815;SDS011;1923;48.154;11.536;2023-11-22T02:06:33;10.80;;;6.47;;
3815;SDS011;1923;48.154;11.536;2023-11-22T02:09:02;9.23;;;6.40;;
3815;SDS011;1923;48.154;11.536;2023-11-22T02:11:30;9.60;;;5.93;;
3815;SDS011;1923;48.154;11.536;2023-11-22T02:13:58;9.07;;;5.47;;
3815;SDS011;1923;48.154;11.536;2023-11-22T02:16:27;8.20;;;4.90;;
3815;SDS011;1923;48.154;11.536;2023-11-22T02:18:57;8.63;;;4.93;;
3815;SDS011;1923;48.154;11.536;2023-11-22T02:21:25;8.10;;;4.07;;
3815;SDS011;1923;48.154;11.536;2023-11-22T02:23:55;5.77;;;3.77;;
3815;SDS011;1923;48.154;11.536;2023-11-22T02:26:23;5.37;;;3.60;;
3815;SDS011;1923;48.154;11.536;2023-11-22T02:28:51;5.97;;;3.67;;
3815;SDS011;1923;48.154;11.536;2023-11-22T02:31:19;6.17;;;3.97;;
3815;SDS011;1923;48.154;11.536;2023-11-22T02:33:47;5.57;;;2.77;;
3815;SDS011;1923;48.154;11.536;2023-11-22T02:36:15;4.33;;;3.40;;
3815;SDS011;1923;48.154;11.536;2023-11-22T02:38:43;5.37;;;3.10;;
3815;SDS011;1923;48.154;11.536;2023-11-22T02:41:13;4.57;;;2.53;;
3815;SDS011;1923;48.154;11.536;2023-11-22T02:43:41;3.60;;;2.60;;
3815;SDS011;1923;48.154;11.536;2023-11-22T02:46:10;4.83;;;2.70;;
3815;SDS011;1923;48.154;11.536;2023-11-22T02:48:39;4.50;;;2.73;;
3815;SDS011;1923;48.154;11.536;2023-11-22T02:51:07;5.67;;;2.63;;
3815;SDS011;1923;48.154;11.536;2023-11-22T02:53:35;5.13;;;3.13;;
3815;SDS011;1923;48.154;11.536;2023-11-22T02:56:03;4.80;;;2.90;;
3815;SDS011;1923;48.154;11.536;2023-11-22T02:58:33;4.00;;;2.60;;
3815;SDS011;1923;48.154;11.536;2023-11-22T03:01:02;4.47;;;2.77;;
3815;SDS011;1923;48.154;11.536;2023-11-22T03:03:30;3.13;;;2.83;;
3815;SDS011;1923;48.154;11.536;2023-11-22T03:05:58;4.53;;;3.70;;
3815;SDS011;1923;48.154;11.536;2023-11-22T03:08:26;3.57;;;2.30;;
3815;SDS011;1923;48.154;11.536;2023-11-22T03:10:54;4.80;;;2.47;;
3815;SDS011;1923;48.154;11.536;2023-11-22T03:13:22;3.93;;;2.37;;
3815;SDS011;1923;48.154;11.536;2023-11-22T03:15:52;4.97;;;2.60;;
3815;SDS011;1923;48.154;11.536;2023-11-22T03:18:20;3.53;;;2.40;;
3815;SDS011;1923;48.154;11.536;2023-11-22T03:20:48;4.07;;;2.57;;
3815;SDS011;1923;48.154;11.536;2023-11-22T03:23:20;3.10;;;2.37;;
3815;SDS011;1923;48.154;11.536;2023-11-22T03:25:48;4.97;;;3.00;;
3815;SDS011;1923;48.154;11.536;2023-11-22T03:28:16;4.53;;;3.00;;
3815;SDS011;1923;48.154;11.536;2023-11-22T03:30:44;4.97;;;3.00;;
3815;SDS011;1923;48.154;11.536;2023-11-22T03:33:14;3.87;;;2.90;;
3815;SDS011;1923;48.154;11.536;2023-11-22T03:35:42;4.47;;;2.53;;
3815;SDS011;1923;48.154;11.536;2023-11-22T03:38:10;6.23;;;3.27;;
3815;SDS011;1923;48.154;11.536;2023-11-22T03:40:38;4.20;;;2.90;;
3815;SDS011;1923;48.154;11.536;2023-11-22T03:43:06;4.80;;;3.00;;
3815;SDS011;1923;48.154;11.536;2023-11-22T03:45:36;3.63;;;2.90;;
3815;SDS011;1923;48.154;11.536;2023-11-22T03:48:04;5.10;;;3.10;;
3815;SDS011;1923;48.154;11.536;2023-11-22T03:50:34;3.87;;;3.10;;
3815;SDS011;1923;48.154;11.536;2023-11-22T03:53:02;5.23;;;3.00;;
3815;SDS011;1923;48.154;11.536;2023-11-22T03:55:30;5.83;;;3.33;;
3815;SDS011;1923;48.154;11.536;2023-11-22T03:57:58;5.50;;;3.07;;
3815;SDS011;1923;48.154;11.536;2023-11-22T04:00:26;3.93;;;2.90;;
3815;SDS011;1923;48.154;11.536;2023-11-22T04:02:55;5.47;;;3.50;;
3815;SDS011;1923;48.154;11.536;2023-11-22T04:05:26;4.80;;;3.03;;
3815;SDS011;1923;48.154;11.536;2023-11-22T04:07:55;3.70;;;2.80;;
3815;SDS011;1923;48.154;11.536;2023-11-22T04:10:23;5.80;;;3.70;;
3815;SDS011;1923;48.154;11.536;2023-11-22T04:12:51;4.50;;;2.97;;
3815;SDS011;1923;48.154;11.536;2023-11-22T04:15:19;4.20;;;2.60;;
3815;SDS011;1923;48.154;11.536;2023-11-22T04:17:48;4.00;;;2.97;;
3815;SDS011;1923;48.154;11.536;2023-11-22T04:20:17;6.13;;;3.47;;
3815;SDS011;1923;48.154;11.536;2023-11-22T04:22:45;5.10;;;3.17;;
3815;SDS011;1923;48.154;11.536;2023-11-22T04:25:14;4.90;;;3.10;;
3815;SDS011;1923;48.154;11.536;2023-11-22T04:27:42;6.30;;;3.53;;
3815;SDS011;1923;48.154;11.536;2023-11-22T04:30:11;5.87;;;3.23;;
3815;SDS011;1923;48.154;11.536;2023-11-22T04:32:41;5.83;;;3.73;;
3815;SDS011;1923;48.154;11.536;2023-11-22T04:35:09;4.73;;;2.83;;
3815;SDS011;1923;48.154;11.536;2023-11-22T04:37:38;5.37;;;3.27;;
3815;SDS011;1923;48.154;11.536;2023-11-22T04:40:06;4.67;;;2.93;;
3815;SDS011;1923;48.154;11.536;2023-11-22T04:42:36;5.00;;;3.00;;
3815;SDS011;1923;48.154;11.536;2023-11-22T04:45:04;4.30;;;3.27;;
3815;SDS011;1923;48.154;11.536;2023-11-22T04:47:33;5.07;;;2.97;;
3815;SDS011;1923;48.154;11.536;2023-11-22T04:50:01;7.60;;;2.97;;
3815;SDS011;1923;48.154;11.536;2023-11-22T04:52:31;3.60;;;2.40;;
3815;SDS011;1923;48.154;11.536;2023-11-22T04:54:59;3.57;;;3.00;;
3815;SDS011;1923;48.154;11.536;2023-11-22T04:57:27;6.73;;;2.83;;
3815;SDS011;1923;48.154;11.536;2023-11-22T04:59:57;4.20;;;2.57;;
3815;SDS011;1923;48.154;11.536;2023-11-22T05:02:27;5.50;;;3.00;;
3815;SDS011;1923;48.154;11.536;2023-11-22T05:04:55;5.03;;;2.70;;
3815;SDS011;1923;48.154;11.536;2023-11-22T05:07:23;3.93;;;2.87;;
3815;SDS011;1923;48.154;11.536;2023-11-22T05:09:51;5.43;;;3.10;;
3815;SDS011;1923;48.154;11.536;2023-11-22T05:12:20;4.17;;;2.60;;
3815;SDS011;1923;48.154;11.536;2023-11-22T05:14:49;4.67;;;3.30;;
3815;SDS011;1923;48.154;11.536;2023-11-22T05:17:18;5.73;;;3.23;;
3815;SDS011;1923;48.154;11.536;2023-11-22T05:19:46;4.47;;;3.00;;
3815;SDS011;1923;48.154;11.536;2023-11-22T05:22:14;5.50;;;3.23;;
3815;SDS011;1923;48.154;11.536;2023-11-22T05:24:42;5.30;;;3.27;;
3815;SDS011;1923;48.154;11.536;2023-11-22T05:27:10;4.80;;;2.63;;
3815;SDS011;1923;48.154;11.536;2023-11-22T05:29:38;4.93;;;3.73;;
3815;SDS011;1923;48.154;11.536;2023-11-22T05:32:19;4.00;;;2.80;;
3815;SDS011;1923;48.154;11.536;2023-11-22T05:34:47;4.20;;;2.60;;
3815;SDS011;1923;48.154;11.536;2023-11-22T05:37:15;4.17;;;2.90;;
3815;SDS011;1923;48.154;11.536;2023-11-22T05:39:43;3.90;;;2.80;;
3815;SDS011;1923;48.154;11.536;2023-11-22T05:42:12;12.33;;;5.47;;
3815;SDS011;1923;48.154;11.536;2023-11-22T05:44:40;3.90;;;2.93;;
3815;SDS011;1923;48.154;11.536;2023-11-22T05:47:08;3.00;;;2.40;;
3815;SDS011;1923;48.154;11.536;2023-11-22T05:49:37;3.50;;;2.50;;
3815;SDS011;1923;48.154;11.536;2023-11-22T05:52:05;3.90;;;2.87;;
3815;SDS011;1923;48.154;11.536;2023-11-22T05:54:33;4.63;;;3.23;;
3815;SDS011;1923;48.154;11.536;2023-11-22T05:57:03;3.80;;;2.50;;
3815;SDS011;1923;48.154;11.536;2023-11-22T05:59:31;3.67;;;2.50;;
3815;SDS011;1923;48.154;11.536;2023-11-22T06:02:00;7.90;;;4.70;;
3815;SDS011;1923;48.154;11.536;2023-11-22T06:04:28;5.13;;;2.27;;
3815;SDS011;1923;48.154;11.536;2023-11-22T06:06:58;4.70;;;2.80;;
3815;SDS011;1923;48.154;11.536;2023-11-22T06:09:27;5.33;;;3.30;;
3815;SDS011;1923;48.154;11.536;2023-11-22T06:11:54;4.90;;;3.33;;
3815;SDS011;1923;48.154;11.536;2023-11-22T06:14:23;4.30;;;3.23;;
3815;SDS011;1923;48.154;11.536;2023-11-22T06:16:51;3.70;;;2.57;;
3815;SDS011;1923;48.154;11.536;2023-11-22T06:19:19;5.30;;;3.20;;
3815;SDS011;1923;48.154;11.536;2023-11-22T06:21:47;5.40;;;4.00;;
3815;SDS011;1923;48.154;11.536;2023-11-22T06:24:16;3.67;;;2.83;;
3815;SDS011;1923;48.154;11.536;2023-11-22T06:26:44;5.30;;;3.10;;
3815;SDS011;1923;48.154;11.536;2023-11-22T06:29:13;5.83;;;3.60;;
3815;SDS011;1923;48.154;11.536;2023-11-22T06:31:42;6.33;;;4.00;;
3815;SDS011;1923;48.154;11.536;2023-11-22T06:34:10;6.70;;;4.23;;
3815;SDS011;1923;48.154;11.536;2023-11-22T06:36:38;7.50;;;3.97;;
3815;SDS011;1923;48.154;11.536;2023-11-22T06:39:06;7.90;;;5.00;;
3815;SDS011;1923;48.154;11.536;2023-11-22T06:41:37;7.80;;;5.20;;
3815;SDS011;1923;48.154;11.536;2023-11-22T06:44:05;7.33;;;4.60;;
3815;SDS011;1923;48.154;11.536;2023-11-22T06:46:33;8.33;;;4.40;;
3815;SDS011;1923;48.154;11.536;2023-11-22T06:49:01;6.33;;;4.33;;
3815;SDS011;1923;48.154;11.536;2023-11-22T06:51:30;6.67;;;4.13;;
3815;SDS011;1923;48.154;11.536;2023-11-22T06:53:58;8.30;;;4.50;;
3815;SDS011;1923;48.154;11.536;2023-11-22T06:56:28;6.43;;;4.10;;
3815;SDS011;1923;48.154;11.536;2023-11-22T06:58:57;5.77;;;3.73;;
3815;SDS011;1923;48.154;11.536;2023-11-22T07:01:25;6.57;;;4.50;;
3815;SDS011;1923;48.154;11.536;2023-11-22T07:03:54;5.33;;;3.90;;
3815;SDS011;1923;48.154;11.536;2023-11-22T07:06:22;7.23;;;3.63;;
3815;SDS011;1923;48.154;11.536;2023-11-22T07:08:50;6.47;;;4.40;;
3815;SDS011;1923;48.154;11.536;2023-11-22T07:11:23;6.20;;;3.93;;
3815;SDS011;1923;48.154;11.536;2023-11-22T07:13:52;7.60;;;4.10;;
3815;SDS011;1923;48.154;11.536;2023-11-22T07:16:22;14.77;;;9.77;;
3815;SDS011;1923;48.154;11.536;2023-11-22T07:18:51;6.20;;;4.30;;
3815;SDS011;1923;48.154;11.536;2023-11-22T07:21:19;7.27;;;4.50;;
3815;SDS011;1923;48.154;11.536;2023-11-22T07:23:48;7.27;;;4.60;;
3815;SDS011;1923;48.154;11.536;2023-11-22T07:26:18;6.53;;;3.50;;
3815;SDS011;1923;48.154;11.536;2023-11-22T07:28:47;6.63;;;3.93;;
3815;SDS011;1923;48.154;11.536;2023-11-22T07:31:15;5.72;;;4.10;;
3815;SDS011;1923;48.154;11.536;2023-11-22T07:33:46;7.20;;;4.57;;
3815;SDS011;1923;48.154;11.536;2023-11-22T07:36:14;7.57;;;4.17;;
3815;SDS011;1923;48.154;11.536;2023-11-22T07:38:42;6.10;;;4.37;;
3815;SDS011;1923;48.154;11.536;2023-11-22T07:41:10;7.13;;;4.67;;
3815;SDS011;1923;48.154;11.536;2023-11-22T07:43:38;9.20;;;4.70;;
3815;SDS011;1923;48.154;11.536;2023-11-22T07:46:07;6.97;;;4.40;;
3815;SDS011;1923;48.154;11.536;2023-11-22T07:48:39;6.70;;;4.60;;
3815;SDS011;1923;48.154;11.536;2023-11-22T07:51:09;7.97;;;5.20;;
3815;SDS011;1923;48.154;11.536;2023-11-22T07:53:37;7.95;;;4.30;;
3815;SDS011;1923;48.154;11.536;2023-11-22T07:56:07;7.93;;;4.70;;
3815;SDS011;1923;48.154;11.536;2023-11-22T07:58:36;9.73;;;4.33;;
3815;SDS011;1923;48.154;11.536;2023-11-22T08:01:04;8.90;;;5.30;;
3815;SDS011;1923;48.154;11.536;2023-11-22T08:03:39;9.57;;;5.67;;
3815;SDS011;1923;48.154;11.536;2023-11-22T08:06:13;7.13;;;4.60;;
3815;SDS011;1923;48.154;11.536;2023-11-22T08:08:43;8.50;;;5.33;;
3815;SDS011;1923;48.154;11.536;2023-11-22T08:11:13;8.60;;;5.30;;
3815;SDS011;1923;48.154;11.536;2023-11-22T08:13:42;8.70;;;4.70;;
3815;SDS011;1923;48.154;11.536;2023-11-22T08:16:11;8.93;;;4.30;;
3815;SDS011;1923;48.154;11.536;2023-11-22T08:18:40;8.17;;;4.80;;
3815;SDS011;1923;48.154;11.536;2023-11-22T08:21:10;10.43;;;5.57;;
3815;SDS011;1923;48.154;11.536;2023-11-22T08:23:40;7.88;;;4.60;;
3815;SDS011;1923;48.154;11.536;2023-11-22T08:26:08;8.07;;;5.07;;
3815;SDS011;1923;48.154;11.536;2023-11-22T08:28:38;9.50;;;5.13;;
3815;SDS011;1923;48.154;11.536;2023-11-22T08:31:06;8.70;;;5.60;;
3815;SDS011;1923;48.154;11.536;2023-11-22T08:33:36;8.93;;;5.50;;
3815;SDS011;1923;48.154;11.536;2023-11-22T08:36:05;8.03;;;4.50;;
3815;SDS011;1923;48.154;11.536;2023-11-22T08:38:34;7.37;;;4.50;;
3815;SDS011;1923;48.154;11.536;2023-11-22T08:41:04;7.37;;;5.03;;
3815;SDS011;1923;48.154;11.536;2023-11-22T08:43:33;7.67;;;5.30;;
3815;SDS011;1923;48.154;11.536;2023-11-22T08:46:01;7.37;;;5.20;;
3815;SDS011;1923;48.154;11.536;2023-11-22T08:48:40;8.50;;;4.83;;
3815;SDS011;1923;48.154;11.536;2023-11-22T08:51:09;6.53;;;4.67;;
3815;SDS011;1923;48.154;11.536;2023-11-22T08:53:38;5.77;;;4.10;;
3815;SDS011;1923;48.154;11.536;2023-11-22T08:56:08;8.53;;;5.87;;
3815;SDS011;1923;48.154;11.536;2023-11-22T08:58:36;8.30;;;5.57;;
3815;SDS011;1923;48.154;11.536;2023-11-22T09:01:05;7.40;;;4.90;;
3815;SDS011;1923;48.154;11.536;2023-11-22T09:03:33;11.70;;;5.30;;
3815;SDS011;1923;48.154;11.536;2023-11-22T09:06:02;8.90;;;5.47;;
3815;SDS011;1923;48.154;11.536;2023-11-22T09:08:33;7.90;;;5.20;;
3815;SDS011;1923;48.154;11.536;2023-11-22T09:11:02;7.73;;;5.13;;
3815;SDS011;1923;48.154;11.536;2023-11-22T09:13:34;7.57;;;4.87;;
3815;SDS011;1923;48.154;11.536;2023-11-22T09:16:02;7.47;;;5.30;;
3815;SDS011;1923;48.154;11.536;2023-11-22T09:18:32;7.60;;;4.63;;
3815;SDS011;1923;48.154;11.536;2023-11-22T09:21:00;6.57;;;4.63;;
3815;SDS011;1923;48.154;11.536;2023-11-22T09:23:29;7.33;;;4.90;;
3815;SDS011;1923;48.154;11.536;2023-11-22T09:25:57;7.57;;;5.10;;
3815;SDS011;1923;48.154;11.536;2023-11-22T09:28:26;6.43;;;4.77;;
3815;SDS011;1923;48.154;11.536;2023-11-22T09:30:55;5.80;;;4.20;;
3815;SDS011;1923;48.154;11.536;2023-11-22T09:33:27;5.40;;;3.70;;
3815;SDS011;1923;48.154;11.536;2023-11-22T09:35:56;7.93;;;5.53;;
3815;SDS011;1923;48.154;11.536;2023-11-22T09:38:24;6.00;;;4.50;;
3815;SDS011;1923;48.154;11.536;2023-11-22T09:40:52;6.07;;;4.27;;
3815;SDS011;1923;48.154;11.536;2023-11-22T09:43:20;7.20;;;3.90;;
3815;SDS011;1923;48.154;11.536;2023-11-22T09:45:52;6.93;;;4.30;;
3815;SDS011;1923;48.154;11.536;2023-11-22T09:48:25;7.60;;;4.97;;
3815;SDS011;1923;48.154;11.536;2023-11-22T09:50:57;14.73;;;6.13;;
3815;SDS011;1923;48.154;11.536;2023-11-22T09:53:31;6.20;;;4.17;;
3815;SDS011;1923;48.154;11.536;2023-11-22T09:56:01;4.93;;;3.37;;
3815;SDS011;1923;48.154;11.536;2023-11-22T09:58:30;8.43;;;4.50;;
3815;SDS011;1923;48.154;11.536;2023-11-22T10:00:59;5.93;;;3.90;;
3815;SDS011;1923;48.154;11.536;2023-11-22T10:03:29;6.90;;;4.10;;
3815;SDS011;1923;48.154;11.536;2023-11-22T10:05:57;5.37;;;3.73;;
3815;SDS011;1923;48.154;11.536;2023-11-22T10:08:26;5.50;;;3.60;;
3815;SDS011;1923;48.154;11.536;2023-11-22T10:10:56;6.70;;;3.87;;
3815;SDS011;1923;48.154;11.536;2023-11-22T10:13:25;4.33;;;3.53;;
3815;SDS011;1923;48.154;11.536;2023-11-22T10:15:54;5.00;;;3.80;;
3815;SDS011;1923;48.154;11.536;2023-11-22T10:18:22;8.23;;;4.97;;
3815;SDS011;1923;48.154;11.536;2023-11-22T10:20:52;6.00;;;4.00;;
3815;SDS011;1923;48.154;11.536;2023-11-22T10:23:20;7.30;;;4.17;;
3815;SDS011;1923;48.154;11.536;2023-11-22T10:25:55;6.23;;;3.93;;
3815;SDS011;1923;48.154;11.536;2023-11-22T10:28:25;7.30;;;4.93;;
3815;SDS011;1923;48.154;11.536;2023-11-22T10:30:54;6.33;;;3.97;;
3815;SDS011;1923;48.154;11.536;2023-11-22T10:33:23;4.77;;;3.97;;
3815;SDS011;1923;48.154;11.536;2023-11-22T10:35:56;6.37;;;4.30;;
3815;SDS011;1923;48.154;11.536;2023-11-22T10:38:24;6.97;;;4.27;;
3815;SDS011;1923;48.154;11.536;2023-11-22T10:40:54;4.90;;;3.70;;
3815;SDS011;1923;48.154;11.536;2023-11-22T10:43:24;5.20;;;3.87;;
3815;SDS011;1923;48.154;11.536;2023-11-22T10:45:55;5.17;;;3.50;;
3815;SDS011;1923;48.154;11.536;2023-11-22T10:48:25;5.53;;;3.20;;
3815;SDS011;1923;48.154;11.536;2023-11-22T10:50:57;3.83;;;3.30;;
3815;SDS011;1923;48.154;11.536;2023-11-22T10:53:31;6.33;;;3.40;;
3815;SDS011;1923;48.154;11.536;2023-11-22T10:56:03;8.63;;;4.40;;
3815;SDS011;1923;48.154;11.536;2023-11-22T10:58:39;5.13;;;4.10;;
3815;SDS011;1923;48.154;11.536;2023-11-22T11:01:15;6.47;;;4.40;;
3815;SDS011;1923;48.154;11.536;2023-11-22T11:03:45;5.97;;;4.00;;
3815;SDS011;1923;48.154;11.536;2023-11-22T11:06:20;4.67;;;3.60;;
3815;SDS011;1923;48.154;11.536;2023-11-22T11:08:55;6.13;;;3.90;;
3815;SDS011;1923;48.154;11.536;2023-11-22T11:11:27;5.50;;;3.30;;
3815;SDS011;1923;48.154;11.536;2023-11-22T11:13:57;5.10;;;3.70;;
3815;SDS011;1923;48.154;11.536;2023-11-22T11:16:25;9.40;;;3.63;;
3815;SDS011;1923;48.154;11.536;2023-11-22T11:18:54;6.77;;;3.43;;
3815;SDS011;1923;48.154;11.536;2023-11-22T11:21:24;6.87;;;3.93;;
3815;SDS011;1923;48.154;11.536;2023-11-22T11:23:54;9.57;;;3.83;;
3815;SDS011;1923;48.154;11.536;2023-11-22T11:26:28;3.73;;;3.33;;
3815;SDS011;1923;48.154;11.536;2023-11-22T11:29:01;5.03;;;3.40;;
3815;SDS011;1923;48.154;11.536;2023-11-22T11:31:30;6.07;;;3.53;;
3815;SDS011;1923;48.154;11.536;2023-11-22T11:34:02;8.30;;;3.80;;
3815;SDS011;1923;48.154;11.536;2023-11-22T11:36:36;8.20;;;4.20;;
3815;SDS011;1923;48.154;11.536;2023-11-22T11:39:05;5.90;;;3.23;;
3815;SDS011;1923;48.154;11.536;2023-11-22T11:41:37;5.40;;;3.70;;
3815;SDS011;1923;48.154;11.536;2023-11-22T11:44:06;5.70;;;3.72;;
3815;SDS011;1923;48.154;11.536;2023-11-22T11:46:36;4.53;;;3.47;;
3815;SDS011;1923;48.154;11.536;2023-11-22T11:49:05;5.23;;;3.67;;
3815;SDS011;1923;48.154;11.536;2023-11-22T11:51:36;5.37;;;3.50;;
3815;SDS011;1923;48.154;11.536;2023-11-22T11:54:04;8.23;;;4.40;;
3815;SDS011;1923;48.154;11.536;2023-11-22T11:56:34;4.37;;;3.00;;
3815;SDS011;1923;48.154;11.536;2023-11-22T11:59:02;7.17;;;4.00;;
3815;SDS011;1923;48.154;11.536;2023-11-22T12:01:31;5.20;;;3.57;;
3815;SDS011;1923;48.154;11.536;2023-11-22T12:04:00;3.90;;;3.13;;
3815;SDS011;1923;48.154;11.536;2023-11-22T12:06:29;88.53;;;19.80;;
3815;SDS011;1923;48.154;11.536;2023-11-22T12:09:01;5.73;;;3.90;;
3815;SDS011;1923;48.154;11.536;2023-11-22T12:11:30;4.57;;;3.50;;
3815;SDS011;1923;48.154;11.536;2023-11-22T12:13:58;4.83;;;3.33;;
3815;SDS011;1923;48.154;11.536;2023-11-22T12:16:26;3.67;;;3.03;;
3815;SDS011;1923;48.154;11.536;2023-11-22T12:18:54;5.30;;;3.63;;
3815;SDS011;1923;48.154;11.536;2023-11-22T12:21:24;5.20;;;3.40;;
3815;SDS011;1923;48.154;11.536;2023-11-22T12:23:54;5.37;;;3.43;;
3815;SDS011;1923;48.154;11.536;2023-11-22T12:26:24;4.30;;;3.43;;
3815;SDS011;1923;48.154;11.536;2023-11-22T12:28:52;12.63;;;3.73;;
3815;SDS011;1923;48.154;11.536;2023-11-22T12:31:31;4.10;;;3.70;;
3815;SDS011;1923;48.154;11.536;2023-11-22T12:34:02;4.90;;;3.87;;
3815;SDS011;1923;48.154;11.536;2023-11-22T12:36:32;14.70;;;5.53;;
3815;SDS011;1923;48.154;11.536;2023-11-22T12:39:02;6.63;;;4.00;;
3815;SDS011;1923;48.154;11.536;2023-11-22T12:41:46;5.90;;;4.20;;
3815;SDS011;1923;48.154;11.536;2023-11-22T12:44:46;6.70;;;4.40;;
3815;SDS011;1923;48.154;11.536;2023-11-22T12:47:15;6.10;;;4.50;;
3815;SDS011;1923;48.154;11.536;2023-11-22T12:49:58;13.97;;;3.77;;
3815;SDS011;1923;48.154;11.536;2023-11-22T12:52:26;5.80;;;4.27;;
3815;SDS011;1923;48.154;11.536;2023-11-22T12:54:54;7.63;;;5.03;;
3815;SDS011;1923;48.154;11.536;2023-11-22T12:57:24;6.38;;;4.00;;
3815;SDS011;1923;48.154;11.536;2023-11-22T12:59:52;9.18;;;5.10;;
3815;SDS011;1923;48.154;11.536;2023-11-22T13:02:20;6.00;;;4.30;;
3815;SDS011;1923;48.154;11.536;2023-11-22T13:04:48;7.70;;;5.93;;
3815;SDS011;1923;48.154;11.536;2023-11-22T13:07:17;5.68;;;3.80;;
3815;SDS011;1923;48.154;11.536;2023-11-22T13:09:46;5.93;;;3.67;;
3815;SDS011;1923;48.154;11.536;2023-11-22T13:12:14;3.60;;;3.13;;
3815;SDS011;1923;48.154;11.536;2023-11-22T13:14:47;5.70;;;3.73;;
3815;SDS011;1923;48.154;11.536;2023-11-22T13:17:17;4.60;;;3.63;;
3815;SDS011;1923;48.154;11.536;2023-11-22T13:19:45;4.67;;;3.67;;
3815;SDS011;1923;48.154;11.536;2023-11-22T13:22:15;7.82;;;4.65;;
3815;SDS011;1923;48.154;11.536;2023-11-22T13:24:45;5.73;;;4.40;;
3815;SDS011;1923;48.154;11.536;2023-11-22T13:27:13;6.20;;;3.70;;
3815;SDS011;1923;48.154;11.536;2023-11-22T13:29:41;5.15;;;4.22;;
3815;SDS011;1923;48.154;11.536;2023-11-22T13:32:11;5.00;;;3.97;;
3815;SDS011;1923;48.154;11.536;2023-11-22T13:34:39;5.00;;;3.10;;
3815;SDS011;1923;48.154;11.536;2023-11-22T13:37:08;6.50;;;4.40;;
3815;SDS011;1923;48.154;11.536;2023-11-22T13:39:36;5.23;;;3.80;;
3815;SDS011;1923;48.154;11.536;2023-11-22T13:42:05;5.57;;;4.30;;
3815;SDS011;1923;48.154;11.536;2023-11-22T13:44:33;4.47;;;3.47;;
3815;SDS011;1923;48.154;11.536;2023-11-22T13:47:01;4.97;;;3.80;;
3815;SDS011;1923;48.154;11.536;2023-11-22T13:49:32;6.03;;;4.00;;
3815;SDS011;1923;48.154;11.536;2023-11-22T13:51:59;5.30;;;4.03;;
3815;SDS011;1923;48.154;11.536;2023-11-22T13:54:28;4.33;;;3.67;;
3815;SDS011;1923;48.154;11.536;2023-11-22T13:56:58;5.20;;;3.83;;
3815;SDS011;1923;48.154;11.536;2023-11-22T13:59:26;6.37;;;4.30;;
3815;SDS011;1923;48.154;11.536;2023-11-22T14:01:54;7.17;;;4.37;;
3815;SDS011;1923;48.154;11.536;2023-11-22T14:04:22;5.07;;;3.70;;
3815;SDS011;1923;48.154;11.536;2023-11-22T14:06:52;5.30;;;4.10;;
3815;SDS011;1923;48.154;11.536;2023-11-22T14:09:21;6.60;;;4.93;;
3815;SDS011;1923;48.154;11.536;2023-11-22T14:11:49;5.97;;;4.27;;
3815;SDS011;1923;48.154;11.536;2023-11-22T14:14:19;5.00;;;4.30;;
3815;SDS011;1923;48.154;11.536;2023-11-22T14:16:47;5.17;;;4.23;;
3815;SDS011;1923;48.154;11.536;2023-11-22T14:19:16;5.27;;;3.93;;
3815;SDS011;1923;48.154;11.536;2023-11-22T14:21:45;5.87;;;4.13;;
3815;SDS011;1923;48.154;11.536;2023-11-22T14:24:14;6.63;;;4.80;;
3815;SDS011;1923;48.154;11.536;2023-11-22T14:26:44;8.20;;;5.10;;
3815;SDS011;1923;48.154;11.536;2023-11-22T14:29:15;7.47;;;5.10;;
3815;SDS011;1923;48.154;11.536;2023-11-22T14:31:44;6.17;;;4.27;;
3815;SDS011;1923;48.154;11.536;2023-11-22T14:34:12;5.47;;;4.13;;
3815;SDS011;1923;48.154;11.536;2023-11-22T14:36:40;5.80;;;4.33;;
3815;SDS011;1923;48.154;11.536;2023-11-22T14:39:08;6.30;;;4.90;;
3815;SDS011;1923;48.154;11.536;2023-11-22T14:41:40;6.00;;;3.80;;
3815;SDS011;1923;48.154;11.536;2023-11-22T14:44:08;7.70;;;4.43;;
3815;SDS011;1923;48.154;11.536;2023-11-22T14:46:36;6.43;;;3.97;;
3815;SDS011;1923;48.154;11.536;2023-11-22T14:49:04;7.03;;;4.10;;
3815;SDS011;1923;48.154;11.536;2023-11-22T14:51:34;6.53;;;4.23;;
3815;SDS011;1923;48.154;11.536;2023-11-22T14:54:02;6.35;;;4.25;;
3815;SDS011;1923;48.154;11.536;2023-11-22T14:56:30;5.90;;;3.75;;
3815;SDS011;1923;48.154;11.536;2023-11-22T14:59:00;6.00;;;4.40;;
3815;SDS011;1923;48.154;11.536;2023-11-22T15:01:28;5.90;;;4.20;;
3815;SDS011;1923;48.154;11.536;2023-11-22T15:03:56;5.00;;;3.70;;
3815;SDS011;1923;48.154;11.536;2023-11-22T15:06:24;5.50;;;4.13;;
3815;SDS011;1923;48.154;11.536;2023-11-22T15:08:52;7.93;;;4.77;;
3815;SDS011;1923;48.154;11.536;2023-11-22T15:11:20;6.70;;;4.20;;
3815;SDS011;1923;48.154;11.536;2023-11-22T15:13:49;5.87;;;4.07;;